sensor_id;sensor_type;location;lat;lon;timestamp;temperature;humidity
53264;DHT22;39153;52.680;6.172;2024-02-04T00:01:43;9.10;99.90
53264;DHT22;39153;52.680;6.172;2024-02-04T00:04:09;9.10;99.90
53264;DHT22;39153;52.680;6.172;2024-02-04T00:06:35;9.40;99.90
53264;DHT22;39153;52.680;6.172;2024-02-04T00:09:01;9.00;99.90
53264;DHT22;39153;52.680;6.172;2024-02-04T00:11:26;9.00;99.90
53264;DHT22;39153;52.680;6.172;2024-02-04T00:13:52;9.20;99.90
53264;DHT22;39153;52.680;6.172;2024-02-04T00:16:18;8.90;99.90
53264;DHT22;39153;52.680;6.172;2024-02-04T00:18:44;8.90;99.90
53264;DHT22;39153;52.680;6.172;2024-02-04T00:21:10;9.20;99.90
53264;DHT22;39153;52.680;6.172;2024-02-04T00:23:35;8.80;99.90
53264;DHT22;39153;52.680;6.172;2024-02-04T00:26:01;9.10;99.90
53264;DHT22;39153;52.680;6.172;2024-02-04T00:28:26;8.90;99.90
53264;DHT22;39153;52.680;6.172;2024-02-04T00:30:54;9.00;99.90
53264;DHT22;39153;52.680;6.172;2024-02-04T00:33:21;9.10;99.90
53264;DHT22;39153;52.680;6.172;2024-02-04T00:35:47;8.80;99.90
53264;DHT22;39153;52.680;6.172;2024-02-04T00:38:13;9.10;99.90
53264;DHT22;39153;52.680;6.172;2024-02-04T00:40:39;8.90;99.90
53264;DHT22;39153;52.680;6.172;2024-02-04T00:43:05;8.80;99.90
53264;DHT22;39153;52.680;6.172;2024-02-04T00:45:31;9.10;99.90
53264;DHT22;39153;52.680;6.172;2024-02-04T00:47:56;9.00;99.90
53264;DHT22;39153;52.680;6.172;2024-02-04T00:50:22;9.00;99.90
53264;DHT22;39153;52.680;6.172;2024-02-04T00:52:48;8.60;99.90
53264;DHT22;39153;52.680;6.172;2024-02-04T00:55:13;9.00;99.90
53264;DHT22;39153;52.680;6.172;2024-02-04T00:57:39;9.00;99.90
53264;DHT22;39153;52.680;6.172;2024-02-04T01:00:05;8.70;99.90
53264;DHT22;39153;52.680;6.172;2024-02-04T01:02:31;8.70;99.90
53264;DHT22;39153;52.680;6.172;2024-02-04T01:04:57;8.60;99.90
53264;DHT22;39153;52.680;6.172;2024-02-04T01:07:22;8.90;99.90
53264;DHT22;39153;52.680;6.172;2024-02-04T01:09:48;8.60;99.90
53264;DHT22;39153;52.680;6.172;2024-02-04T01:12:14;8.60;99.90
53264;DHT22;39153;52.680;6.172;2024-02-04T01:14:39;8.70;99.90
53264;DHT22;39153;52.680;6.172;2024-02-04T01:17:05;8.90;99.90
53264;DHT22;39153;52.680;6.172;2024-02-04T01:19:31;9.00;99.90
53264;DHT22;39153;52.680;6.172;2024-02-04T01:21:56;9.10;99.90
53264;DHT22;39153;52.680;6.172;2024-02-04T01:24:24;8.60;99.90
53264;DHT22;39153;52.680;6.172;2024-02-04T01:26:50;9.00;99.90
53264;DHT22;39153;52.680;6.172;2024-02-04T01:29:16;8.80;99.90
53264;DHT22;39153;52.680;6.172;2024-02-04T01:31:42;8.70;99.90
53264;DHT22;39153;52.680;6.172;2024-02-04T01:34:07;9.00;99.90
53264;DHT22;39153;52.680;6.172;2024-02-04T01:36:33;8.90;99.90
53264;DHT22;39153;52.680;6.172;2024-02-04T01:38:59;8.60;99.90
53264;DHT22;39153;52.680;6.172;2024-02-04T01:41:24;9.00;99.90
53264;DHT22;39153;52.680;6.172;2024-02-04T01:43:53;8.70;99.90
53264;DHT22;39153;52.680;6.172;2024-02-04T01:46:19;8.70;99.90
53264;DHT22;39153;52.680;6.172;2024-02-04T01:48:44;8.80;99.90
53264;DHT22;39153;52.680;6.172;2024-02-04T01:51:11;9.10;99.90
53264;DHT22;39153;52.680;6.172;2024-02-04T01:53:38;8.70;99.90
53264;DHT22;39153;52.680;6.172;2024-02-04T01:56:05;8.90;99.90
53264;DHT22;39153;52.680;6.172;2024-02-04T01:58:32;8.90;99.90
53264;DHT22;39153;52.680;6.172;2024-02-04T02:00:58;8.70;99.90
53264;DHT22;39153;52.680;6.172;2024-02-04T02:03:24;8.50;99.90
53264;DHT22;39153;52.680;6.172;2024-02-04T02:05:51;8.40;99.90
53264;DHT22;39153;52.680;6.172;2024-02-04T02:08:17;8.30;99.90
53264;DHT22;39153;52.680;6.172;2024-02-04T02:10:46;8.50;99.90
53264;DHT22;39153;52.680;6.172;2024-02-04T02:13:24;8.30;99.90
53264;DHT22;39153;52.680;6.172;2024-02-04T02:15:56;8.20;99.90
53264;DHT22;39153;52.680;6.172;2024-02-04T02:18:30;8.20;99.90
53264;DHT22;39153;52.680;6.172;2024-02-04T02:23:35;8.10;99.90
53264;DHT22;39153;52.680;6.172;2024-02-04T02:26:03;8.20;99.90
53264;DHT22;39153;52.680;6.172;2024-02-04T02:28:29;8.10;99.90
53264;DHT22;39153;52.680;6.172;2024-02-04T02:30:55;8.30;99.90
53264;DHT22;39153;52.680;6.172;2024-02-04T02:33:21;8.20;99.90
53264;DHT22;39153;52.680;6.172;2024-02-04T02:35:51;8.10;99.90
53264;DHT22;39153;52.680;6.172;2024-02-04T02:38:29;7.80;99.90
53264;DHT22;39153;52.680;6.172;2024-02-04T02:41:02;8.10;99.90
53264;DHT22;39153;52.680;6.172;2024-02-04T02:43:29;8.00;99.90
53264;DHT22;39153;52.680;6.172;2024-02-04T02:45:56;7.80;99.90
53264;DHT22;39153;52.680;6.172;2024-02-04T02:48:22;7.70;99.90
53264;DHT22;39153;52.680;6.172;2024-02-04T02:50:49;7.90;99.90
53264;DHT22;39153;52.680;6.172;2024-02-04T02:53:15;7.80;99.90
53264;DHT22;39153;52.680;6.172;2024-02-04T02:55:41;7.60;99.90
53264;DHT22;39153;52.680;6.172;2024-02-04T02:58:07;7.70;99.90
53264;DHT22;39153;52.680;6.172;2024-02-04T03:00:33;7.70;99.90
53264;DHT22;39153;52.680;6.172;2024-02-04T03:02:58;7.50;99.90
53264;DHT22;39153;52.680;6.172;2024-02-04T03:05:24;7.60;99.90
53264;DHT22;39153;52.680;6.172;2024-02-04T03:07:50;7.40;99.90
53264;DHT22;39153;52.680;6.172;2024-02-04T03:10:16;7.60;99.90
53264;DHT22;39153;52.680;6.172;2024-02-04T03:12:41;7.40;99.90
53264;DHT22;39153;52.680;6.172;2024-02-04T03:15:07;7.40;99.90
53264;DHT22;39153;52.680;6.172;2024-02-04T03:17:33;7.30;99.90
53264;DHT22;39153;52.680;6.172;2024-02-04T03:19:59;7.30;99.90
53264;DHT22;39153;52.680;6.172;2024-02-04T03:22:24;7.40;99.90
53264;DHT22;39153;52.680;6.172;2024-02-04T03:24:51;7.40;99.90
53264;DHT22;39153;52.680;6.172;2024-02-04T03:27:17;7.30;99.90
53264;DHT22;39153;52.680;6.172;2024-02-04T03:29:43;7.20;99.90
53264;DHT22;39153;52.680;6.172;2024-02-04T03:32:10;7.20;99.90
53264;DHT22;39153;52.680;6.172;2024-02-04T03:34:36;7.20;99.90
53264;DHT22;39153;52.680;6.172;2024-02-04T03:37:01;7.40;99.90
53264;DHT22;39153;52.680;6.172;2024-02-04T03:39:27;7.20;99.90
53264;DHT22;39153;52.680;6.172;2024-02-04T03:41:53;7.20;99.90
53264;DHT22;39153;52.680;6.172;2024-02-04T03:44:18;7.20;99.90
53264;DHT22;39153;52.680;6.172;2024-02-04T03:46:47;7.30;99.90
53264;DHT22;39153;52.680;6.172;2024-02-04T03:49:14;7.30;99.90
53264;DHT22;39153;52.680;6.172;2024-02-04T03:51:40;7.20;99.90
53264;DHT22;39153;52.680;6.172;2024-02-04T03:54:05;7.30;99.90
53264;DHT22;39153;52.680;6.172;2024-02-04T03:56:31;7.20;99.90
53264;DHT22;39153;52.680;6.172;2024-02-04T03:58:57;7.30;99.90
53264;DHT22;39153;52.680;6.172;2024-02-04T04:01:22;7.30;99.90
53264;DHT22;39153;52.680;6.172;2024-02-04T04:03:49;7.30;99.90
53264;DHT22;39153;52.680;6.172;2024-02-04T04:06:15;7.30;99.90
53264;DHT22;39153;52.680;6.172;2024-02-04T04:08:40;7.20;99.90
53264;DHT22;39153;52.680;6.172;2024-02-04T04:11:09;7.40;99.90
53264;DHT22;39153;52.680;6.172;2024-02-04T04:13:35;7.40;99.90
53264;DHT22;39153;52.680;6.172;2024-02-04T04:16:01;7.30;99.90
53264;DHT22;39153;52.680;6.172;2024-02-04T04:18:27;7.40;99.90
53264;DHT22;39153;52.680;6.172;2024-02-04T04:20:53;7.30;99.90
53264;DHT22;39153;52.680;6.172;2024-02-04T04:23:18;7.40;99.90
53264;DHT22;39153;52.680;6.172;2024-02-04T04:25:44;7.40;99.90
53264;DHT22;39153;52.680;6.172;2024-02-04T04:28:09;7.40;99.90
53264;DHT22;39153;52.680;6.172;2024-02-04T04:30:35;7.40;99.90
53264;DHT22;39153;52.680;6.172;2024-02-04T04:33:01;7.20;99.90
53264;DHT22;39153;52.680;6.172;2024-02-04T04:35:26;7.70;99.90
53264;DHT22;39153;52.680;6.172;2024-02-04T04:37:52;7.40;99.90
53264;DHT22;39153;52.680;6.172;2024-02-04T04:40:18;7.50;99.90
53264;DHT22;39153;52.680;6.172;2024-02-04T04:42:44;7.50;99.90
53264;DHT22;39153;52.680;6.172;2024-02-04T04:45:10;7.40;99.90
53264;DHT22;39153;52.680;6.172;2024-02-04T04:47:36;7.50;99.90
53264;DHT22;39153;52.680;6.172;2024-02-04T04:50:03;7.50;99.90
53264;DHT22;39153;52.680;6.172;2024-02-04T04:52:30;7.40;99.90
53264;DHT22;39153;52.680;6.172;2024-02-04T04:54:55;7.40;99.90
53264;DHT22;39153;52.680;6.172;2024-02-04T04:57:22;7.50;99.90
53264;DHT22;39153;52.680;6.172;2024-02-04T04:59:47;7.70;99.90
53264;DHT22;39153;52.680;6.172;2024-02-04T05:02:13;7.50;99.90
53264;DHT22;39153;52.680;6.172;2024-02-04T05:04:45;7.40;99.90
53264;DHT22;39153;52.680;6.172;2024-02-04T05:07:11;7.50;99.90
53264;DHT22;39153;52.680;6.172;2024-02-04T05:09:37;7.40;99.90
53264;DHT22;39153;52.680;6.172;2024-02-04T05:12:03;7.60;99.90
53264;DHT22;39153;52.680;6.172;2024-02-04T05:14:29;7.60;99.90
53264;DHT22;39153;52.680;6.172;2024-02-04T05:16:54;7.50;99.90
53264;DHT22;39153;52.680;6.172;2024-02-04T05:19:20;7.50;99.90
53264;DHT22;39153;52.680;6.172;2024-02-04T05:21:46;7.50;99.90
53264;DHT22;39153;52.680;6.172;2024-02-04T05:24:12;7.50;99.90
53264;DHT22;39153;52.680;6.172;2024-02-04T05:26:38;7.60;99.90
53264;DHT22;39153;52.680;6.172;2024-02-04T05:29:03;7.50;99.90
53264;DHT22;39153;52.680;6.172;2024-02-04T05:31:29;7.60;99.90
53264;DHT22;39153;52.680;6.172;2024-02-04T05:33:56;7.50;99.90
53264;DHT22;39153;52.680;6.172;2024-02-04T05:36:21;7.50;99.90
53264;DHT22;39153;52.680;6.172;2024-02-04T05:38:47;7.60;99.90
53264;DHT22;39153;52.680;6.172;2024-02-04T05:41:13;7.70;99.90
53264;DHT22;39153;52.680;6.172;2024-02-04T05:43:39;7.60;99.90
53264;DHT22;39153;52.680;6.172;2024-02-04T05:46:05;7.60;99.90
53264;DHT22;39153;52.680;6.172;2024-02-04T05:48:31;7.70;99.90
53264;DHT22;39153;52.680;6.172;2024-02-04T05:50:56;7.70;99.90
53264;DHT22;39153;52.680;6.172;2024-02-04T05:53:22;7.60;99.90
53264;DHT22;39153;52.680;6.172;2024-02-04T05:55:47;7.60;99.90
53264;DHT22;39153;52.680;6.172;2024-02-04T05:58:13;7.70;99.90
53264;DHT22;39153;52.680;6.172;2024-02-04T06:00:40;7.70;99.90
53264;DHT22;39153;52.680;6.172;2024-02-04T06:03:06;7.70;99.90
53264;DHT22;39153;52.680;6.172;2024-02-04T06:05:32;7.60;99.90
53264;DHT22;39153;52.680;6.172;2024-02-04T06:07:58;7.70;99.90
53264;DHT22;39153;52.680;6.172;2024-02-04T06:10:23;7.60;99.90
53264;DHT22;39153;52.680;6.172;2024-02-04T06:12:49;7.80;99.90
53264;DHT22;39153;52.680;6.172;2024-02-04T06:15:15;7.60;99.90
53264;DHT22;39153;52.680;6.172;2024-02-04T06:17:41;7.60;99.90
53264;DHT22;39153;52.680;6.172;2024-02-04T06:20:08;7.70;99.90
53264;DHT22;39153;52.680;6.172;2024-02-04T06:22:36;7.70;99.90
53264;DHT22;39153;52.680;6.172;2024-02-04T06:25:05;7.70;99.90
53264;DHT22;39153;52.680;6.172;2024-02-04T06:27:31;7.70;99.90
53264;DHT22;39153;52.680;6.172;2024-02-04T06:29:57;7.70;99.90
53264;DHT22;39153;52.680;6.172;2024-02-04T06:32:23;7.80;99.90
53264;DHT22;39153;52.680;6.172;2024-02-04T06:34:51;7.70;99.90
53264;DHT22;39153;52.680;6.172;2024-02-04T06:37:17;7.70;99.90
53264;DHT22;39153;52.680;6.172;2024-02-04T06:39:43;7.70;99.90
53264;DHT22;39153;52.680;6.172;2024-02-04T06:42:08;7.70;99.90
53264;DHT22;39153;52.680;6.172;2024-02-04T06:44:34;7.90;99.90
53264;DHT22;39153;52.680;6.172;2024-02-04T06:47:00;7.70;99.90
53264;DHT22;39153;52.680;6.172;2024-02-04T06:49:26;7.70;99.90
53264;DHT22;39153;52.680;6.172;2024-02-04T06:51:52;7.70;99.90
53264;DHT22;39153;52.680;6.172;2024-02-04T06:54:25;7.70;99.90
53264;DHT22;39153;52.680;6.172;2024-02-04T06:56:51;7.70;99.90
53264;DHT22;39153;52.680;6.172;2024-02-04T06:59:18;7.80;99.90
53264;DHT22;39153;52.680;6.172;2024-02-04T07:01:44;7.70;99.90
53264;DHT22;39153;52.680;6.172;2024-02-04T07:04:09;7.70;99.90
53264;DHT22;39153;52.680;6.172;2024-02-04T07:06:35;7.70;99.90
53264;DHT22;39153;52.680;6.172;2024-02-04T07:09:00;7.70;99.90
53264;DHT22;39153;52.680;6.172;2024-02-04T07:11:26;7.70;99.90
53264;DHT22;39153;52.680;6.172;2024-02-04T07:13:52;7.70;99.90
53264;DHT22;39153;52.680;6.172;2024-02-04T07:16:24;7.80;99.90
53264;DHT22;39153;52.680;6.172;2024-02-04T07:18:50;7.80;99.90
53264;DHT22;39153;52.680;6.172;2024-02-04T07:21:16;7.80;99.90
53264;DHT22;39153;52.680;6.172;2024-02-04T07:23:42;7.90;99.90
53264;DHT22;39153;52.680;6.172;2024-02-04T07:26:08;7.80;99.90
53264;DHT22;39153;52.680;6.172;2024-02-04T07:28:34;7.80;99.90
53264;DHT22;39153;52.680;6.172;2024-02-04T07:31:00;7.80;99.90
53264;DHT22;39153;52.680;6.172;2024-02-04T07:33:25;7.80;99.90
53264;DHT22;39153;52.680;6.172;2024-02-04T07:35:51;7.90;99.90
53264;DHT22;39153;52.680;6.172;2024-02-04T07:38:17;7.80;99.90
53264;DHT22;39153;52.680;6.172;2024-02-04T07:40:42;7.80;99.90
53264;DHT22;39153;52.680;6.172;2024-02-04T07:43:08;7.80;99.90
53264;DHT22;39153;52.680;6.172;2024-02-04T07:45:34;7.90;99.90
53264;DHT22;39153;52.680;6.172;2024-02-04T07:48:00;7.90;99.90
53264;DHT22;39153;52.680;6.172;2024-02-04T07:50:27;7.90;99.90
53264;DHT22;39153;52.680;6.172;2024-02-04T07:52:53;7.90;99.90
53264;DHT22;39153;52.680;6.172;2024-02-04T07:55:19;7.80;99.90
53264;DHT22;39153;52.680;6.172;2024-02-04T07:57:45;7.90;99.90
53264;DHT22;39153;52.680;6.172;2024-02-04T08:00:11;8.00;99.90
53264;DHT22;39153;52.680;6.172;2024-02-04T08:02:37;8.20;99.90
53264;DHT22;39153;52.680;6.172;2024-02-04T08:05:06;8.20;99.90
53264;DHT22;39153;52.680;6.172;2024-02-04T08:07:32;8.30;99.90
53264;DHT22;39153;52.680;6.172;2024-02-04T08:09:58;8.50;99.90
53264;DHT22;39153;52.680;6.172;2024-02-04T08:12:23;8.50;99.90
53264;DHT22;39153;52.680;6.172;2024-02-04T08:14:49;8.60;99.90
53264;DHT22;39153;52.680;6.172;2024-02-04T08:17:15;8.60;99.90
53264;DHT22;39153;52.680;6.172;2024-02-04T08:19:41;8.60;99.90
53264;DHT22;39153;52.680;6.172;2024-02-04T08:22:06;8.70;99.90
53264;DHT22;39153;52.680;6.172;2024-02-04T08:24:33;8.70;99.90
53264;DHT22;39153;52.680;6.172;2024-02-04T08:26:59;8.70;99.90
53264;DHT22;39153;52.680;6.172;2024-02-04T08:29:25;8.80;99.90
53264;DHT22;39153;52.680;6.172;2024-02-04T08:31:52;8.80;99.90
53264;DHT22;39153;52.680;6.172;2024-02-04T08:34:18;8.80;99.90
53264;DHT22;39153;52.680;6.172;2024-02-04T08:36:45;8.80;99.90
53264;DHT22;39153;52.680;6.172;2024-02-04T08:39:11;8.90;99.90
53264;DHT22;39153;52.680;6.172;2024-02-04T08:41:37;8.80;99.90
53264;DHT22;39153;52.680;6.172;2024-02-04T08:44:03;8.80;99.90
53264;DHT22;39153;52.680;6.172;2024-02-04T08:46:28;8.80;99.90
53264;DHT22;39153;52.680;6.172;2024-02-04T08:48:54;8.80;99.90
53264;DHT22;39153;52.680;6.172;2024-02-04T08:51:20;8.80;99.90
53264;DHT22;39153;52.680;6.172;2024-02-04T08:53:45;8.90;99.90
53264;DHT22;39153;52.680;6.172;2024-02-04T08:56:11;8.80;99.90
53264;DHT22;39153;52.680;6.172;2024-02-04T08:58:37;8.90;99.90
53264;DHT22;39153;52.680;6.172;2024-02-04T09:01:04;8.90;99.90
53264;DHT22;39153;52.680;6.172;2024-02-04T09:03:30;8.90;99.90
53264;DHT22;39153;52.680;6.172;2024-02-04T09:05:57;8.90;99.90
53264;DHT22;39153;52.680;6.172;2024-02-04T09:08:23;9.00;99.90
53264;DHT22;39153;52.680;6.172;2024-02-04T09:10:48;8.90;99.90
53264;DHT22;39153;52.680;6.172;2024-02-04T09:13:14;9.00;99.90
53264;DHT22;39153;52.680;6.172;2024-02-04T09:15:40;8.90;99.90
53264;DHT22;39153;52.680;6.172;2024-02-04T09:18:05;9.30;99.90
53264;DHT22;39153;52.680;6.172;2024-02-04T09:20:31;8.90;99.90
53264;DHT22;39153;52.680;6.172;2024-02-04T09:22:57;9.00;99.90
53264;DHT22;39153;52.680;6.172;2024-02-04T09:25:24;9.00;99.90
53264;DHT22;39153;52.680;6.172;2024-02-04T09:27:49;9.10;99.90
53264;DHT22;39153;52.680;6.172;2024-02-04T09:30:15;9.20;99.90
53264;DHT22;39153;52.680;6.172;2024-02-04T09:32:41;9.20;99.90
53264;DHT22;39153;52.680;6.172;2024-02-04T09:35:07;9.20;99.90
53264;DHT22;39153;52.680;6.172;2024-02-04T09:37:35;9.30;99.90
53264;DHT22;39153;52.680;6.172;2024-02-04T09:40:01;9.30;99.90
53264;DHT22;39153;52.680;6.172;2024-02-04T09:42:26;9.30;99.90
53264;DHT22;39153;52.680;6.172;2024-02-04T09:44:53;9.40;99.90
53264;DHT22;39153;52.680;6.172;2024-02-04T09:47:20;9.30;99.90
53264;DHT22;39153;52.680;6.172;2024-02-04T09:49:46;9.40;99.90
53264;DHT22;39153;52.680;6.172;2024-02-04T09:52:13;9.30;99.90
53264;DHT22;39153;52.680;6.172;2024-02-04T09:54:59;9.40;99.90
53264;DHT22;39153;52.680;6.172;2024-02-04T09:57:26;9.40;99.90
53264;DHT22;39153;52.680;6.172;2024-02-04T09:59:52;9.30;99.90
53264;DHT22;39153;52.680;6.172;2024-02-04T10:02:17;9.30;99.90
53264;DHT22;39153;52.680;6.172;2024-02-04T10:04:44;9.30;99.90
53264;DHT22;39153;52.680;6.172;2024-02-04T10:07:09;9.30;99.90
53264;DHT22;39153;52.680;6.172;2024-02-04T10:09:35;9.30;99.90
53264;DHT22;39153;52.680;6.172;2024-02-04T10:12:01;9.20;99.90
53264;DHT22;39153;52.680;6.172;2024-02-04T10:14:27;9.30;99.90
53264;DHT22;39153;52.680;6.172;2024-02-04T10:16:53;9.30;99.90
53264;DHT22;39153;52.680;6.172;2024-02-04T10:19:18;9.30;99.90
53264;DHT22;39153;52.680;6.172;2024-02-04T10:21:44;9.30;99.90
53264;DHT22;39153;52.680;6.172;2024-02-04T10:24:09;9.30;99.90
53264;DHT22;39153;52.680;6.172;2024-02-04T10:26:35;9.30;99.90
53264;DHT22;39153;52.680;6.172;2024-02-04T10:29:03;9.30;99.90
53264;DHT22;39153;52.680;6.172;2024-02-04T10:31:29;9.30;99.90
53264;DHT22;39153;52.680;6.172;2024-02-04T10:33:55;9.40;99.90
53264;DHT22;39153;52.680;6.172;2024-02-04T10:36:21;9.40;99.90
53264;DHT22;39153;52.680;6.172;2024-02-04T10:38:47;9.50;99.90
53264;DHT22;39153;52.680;6.172;2024-02-04T10:41:15;9.50;99.90
53264;DHT22;39153;52.680;6.172;2024-02-04T10:43:43;9.60;99.90
53264;DHT22;39153;52.680;6.172;2024-02-04T10:46:13;9.70;99.90
53264;DHT22;39153;52.680;6.172;2024-02-04T10:48:42;9.60;99.90
53264;DHT22;39153;52.680;6.172;2024-02-04T10:51:16;9.60;99.90
53264;DHT22;39153;52.680;6.172;2024-02-04T10:53:44;9.70;99.90
53264;DHT22;39153;52.680;6.172;2024-02-04T10:56:25;9.70;99.90
53264;DHT22;39153;52.680;6.172;2024-02-04T10:58:55;9.80;99.90
53264;DHT22;39153;52.680;6.172;2024-02-04T11:01:22;9.80;99.90
53264;DHT22;39153;52.680;6.172;2024-02-04T11:03:50;9.70;99.90
53264;DHT22;39153;52.680;6.172;2024-02-04T11:06:18;9.80;99.90
53264;DHT22;39153;52.680;6.172;2024-02-04T11:08:44;9.90;99.90
53264;DHT22;39153;52.680;6.172;2024-02-04T11:11:09;9.90;99.90
53264;DHT22;39153;52.680;6.172;2024-02-04T11:13:36;9.80;99.90
53264;DHT22;39153;52.680;6.172;2024-02-04T11:16:07;9.90;99.90
53264;DHT22;39153;52.680;6.172;2024-02-04T11:21:35;9.90;99.90
53264;DHT22;39153;52.680;6.172;2024-02-04T11:24:50;9.90;99.90
53264;DHT22;39153;52.680;6.172;2024-02-04T11:27:19;10.10;99.90
53264;DHT22;39153;52.680;6.172;2024-02-04T11:29:45;10.10;99.90
53264;DHT22;39153;52.680;6.172;2024-02-04T11:32:11;10.00;99.90
53264;DHT22;39153;52.680;6.172;2024-02-04T11:34:37;10.10;99.90
53264;DHT22;39153;52.680;6.172;2024-02-04T11:37:15;10.00;99.90
53264;DHT22;39153;52.680;6.172;2024-02-04T11:39:48;9.90;99.90
53264;DHT22;39153;52.680;6.172;2024-02-04T11:42:14;9.90;99.90
53264;DHT22;39153;52.680;6.172;2024-02-04T11:44:41;9.90;99.90
53264;DHT22;39153;52.680;6.172;2024-02-04T11:47:07;9.90;99.90
53264;DHT22;39153;52.680;6.172;2024-02-04T11:49:33;9.80;99.90
53264;DHT22;39153;52.680;6.172;2024-02-04T11:51:59;9.80;99.90
53264;DHT22;39153;52.680;6.172;2024-02-04T11:54:25;9.80;99.90
53264;DHT22;39153;52.680;6.172;2024-02-04T11:56:52;9.80;99.90
53264;DHT22;39153;52.680;6.172;2024-02-04T11:59:23;9.80;99.90
53264;DHT22;39153;52.680;6.172;2024-02-04T12:01:49;9.80;99.90
53264;DHT22;39153;52.680;6.172;2024-02-04T12:04:18;9.80;99.90
53264;DHT22;39153;52.680;6.172;2024-02-04T12:06:45;9.80;99.90
53264;DHT22;39153;52.680;6.172;2024-02-04T12:09:11;9.80;99.90
53264;DHT22;39153;52.680;6.172;2024-02-04T12:11:38;9.80;99.90
53264;DHT22;39153;52.680;6.172;2024-02-04T12:14:05;9.80;99.90
53264;DHT22;39153;52.680;6.172;2024-02-04T12:16:32;9.90;99.90
53264;DHT22;39153;52.680;6.172;2024-02-04T12:19:01;9.80;99.90
53264;DHT22;39153;52.680;6.172;2024-02-04T12:21:29;9.90;99.90
53264;DHT22;39153;52.680;6.172;2024-02-04T12:23:55;9.80;99.90
53264;DHT22;39153;52.680;6.172;2024-02-04T12:26:22;9.90;99.90
53264;DHT22;39153;52.680;6.172;2024-02-04T12:28:49;9.90;99.90
53264;DHT22;39153;52.680;6.172;2024-02-04T12:31:25;9.90;99.90
53264;DHT22;39153;52.680;6.172;2024-02-04T12:33:55;10.00;99.90
53264;DHT22;39153;52.680;6.172;2024-02-04T12:36:27;10.00;99.90
53264;DHT22;39153;52.680;6.172;2024-02-04T12:39:02;10.00;99.90
53264;DHT22;39153;52.680;6.172;2024-02-04T12:41:28;10.00;99.90
53264;DHT22;39153;52.680;6.172;2024-02-04T12:43:57;10.00;99.90
53264;DHT22;39153;52.680;6.172;2024-02-04T12:46:24;9.90;99.90
53264;DHT22;39153;52.680;6.172;2024-02-04T12:48:56;10.00;99.90
53264;DHT22;39153;52.680;6.172;2024-02-04T12:51:32;10.00;99.90
53264;DHT22;39153;52.680;6.172;2024-02-04T12:54:17;10.00;99.90
53264;DHT22;39153;52.680;6.172;2024-02-04T12:56:49;10.10;99.90
53264;DHT22;39153;52.680;6.172;2024-02-04T13:01:58;10.00;99.90
53264;DHT22;39153;52.680;6.172;2024-02-04T13:04:24;10.10;99.90
53264;DHT22;39153;52.680;6.172;2024-02-04T13:06:51;10.10;99.90
53264;DHT22;39153;52.680;6.172;2024-02-04T13:09:17;10.10;99.90
53264;DHT22;39153;52.680;6.172;2024-02-04T13:11:43;10.10;99.90
53264;DHT22;39153;52.680;6.172;2024-02-04T13:14:09;10.10;99.90
53264;DHT22;39153;52.680;6.172;2024-02-04T13:16:35;10.10;99.90
53264;DHT22;39153;52.680;6.172;2024-02-04T13:19:02;10.10;99.90
53264;DHT22;39153;52.680;6.172;2024-02-04T13:21:28;10.10;99.90
53264;DHT22;39153;52.680;6.172;2024-02-04T13:23:54;10.20;99.90
53264;DHT22;39153;52.680;6.172;2024-02-04T13:26:20;10.10;99.90
53264;DHT22;39153;52.680;6.172;2024-02-04T13:28:46;10.10;99.90
53264;DHT22;39153;52.680;6.172;2024-02-04T13:31:12;10.10;99.90
53264;DHT22;39153;52.680;6.172;2024-02-04T13:33:41;10.10;99.90
53264;DHT22;39153;52.680;6.172;2024-02-04T13:36:10;10.10;99.90
53264;DHT22;39153;52.680;6.172;2024-02-04T13:38:36;10.10;99.90
53264;DHT22;39153;52.680;6.172;2024-02-04T13:41:03;10.10;99.90
53264;DHT22;39153;52.680;6.172;2024-02-04T13:43:33;10.20;99.90
53264;DHT22;39153;52.680;6.172;2024-02-04T13:46:03;10.10;99.90
53264;DHT22;39153;52.680;6.172;2024-02-04T13:48:28;10.10;99.90
53264;DHT22;39153;52.680;6.172;2024-02-04T13:50:54;10.10;99.90
53264;DHT22;39153;52.680;6.172;2024-02-04T13:53:20;10.10;99.90
53264;DHT22;39153;52.680;6.172;2024-02-04T13:55:47;10.10;99.90
53264;DHT22;39153;52.680;6.172;2024-02-04T13:58:13;10.00;99.90
53264;DHT22;39153;52.680;6.172;2024-02-04T14:00:40;10.00;99.90
53264;DHT22;39153;52.680;6.172;2024-02-04T14:03:05;10.00;99.90
53264;DHT22;39153;52.680;6.172;2024-02-04T14:05:32;10.00;99.90
53264;DHT22;39153;52.680;6.172;2024-02-04T14:07:58;10.00;99.90
53264;DHT22;39153;52.680;6.172;2024-02-04T14:10:24;9.90;99.90
53264;DHT22;39153;52.680;6.172;2024-02-04T14:12:50;10.00;99.90
53264;DHT22;39153;52.680;6.172;2024-02-04T14:15:15;9.90;99.90
53264;DHT22;39153;52.680;6.172;2024-02-04T14:17:42;9.90;99.90
53264;DHT22;39153;52.680;6.172;2024-02-04T14:20:08;9.90;99.90
53264;DHT22;39153;52.680;6.172;2024-02-04T14:22:34;9.90;99.90
53264;DHT22;39153;52.680;6.172;2024-02-04T14:25:00;9.90;99.90
53264;DHT22;39153;52.680;6.172;2024-02-04T14:27:26;9.80;99.90
53264;DHT22;39153;52.680;6.172;2024-02-04T14:29:52;9.80;99.90
53264;DHT22;39153;52.680;6.172;2024-02-04T14:32:17;9.90;99.90
53264;DHT22;39153;52.680;6.172;2024-02-04T14:34:44;9.80;99.90
53264;DHT22;39153;52.680;6.172;2024-02-04T14:37:10;9.70;99.90
53264;DHT22;39153;52.680;6.172;2024-02-04T14:39:36;9.70;99.90
53264;DHT22;39153;52.680;6.172;2024-02-04T14:42:02;9.80;99.90
53264;DHT22;39153;52.680;6.172;2024-02-04T14:44:28;9.80;99.90
53264;DHT22;39153;52.680;6.172;2024-02-04T14:46:54;9.80;99.90
53264;DHT22;39153;52.680;6.172;2024-02-04T14:49:20;9.80;99.90
53264;DHT22;39153;52.680;6.172;2024-02-04T14:51:45;9.60;99.90
53264;DHT22;39153;52.680;6.172;2024-02-04T14:54:11;9.70;99.90
53264;DHT22;39153;52.680;6.172;2024-02-04T14:56:38;9.70;99.90
53264;DHT22;39153;52.680;6.172;2024-02-04T14:59:04;9.80;99.90
53264;DHT22;39153;52.680;6.172;2024-02-04T15:01:30;9.60;99.90
53264;DHT22;39153;52.680;6.172;2024-02-04T15:03:55;9.80;99.90
53264;DHT22;39153;52.680;6.172;2024-02-04T15:06:21;9.70;99.90
53264;DHT22;39153;52.680;6.172;2024-02-04T15:08:47;9.60;99.90
53264;DHT22;39153;52.680;6.172;2024-02-04T15:11:13;9.60;99.90
53264;DHT22;39153;52.680;6.172;2024-02-04T15:13:39;9.90;99.90
53264;DHT22;39153;52.680;6.172;2024-02-04T15:16:05;9.90;99.90
53264;DHT22;39153;52.680;6.172;2024-02-04T15:18:32;9.90;99.90
53264;DHT22;39153;52.680;6.172;2024-02-04T15:20:58;9.90;99.90
53264;DHT22;39153;52.680;6.172;2024-02-04T15:23:24;9.80;99.90
53264;DHT22;39153;52.680;6.172;2024-02-04T15:25:51;9.90;99.90
53264;DHT22;39153;52.680;6.172;2024-02-04T15:28:18;9.90;99.90
53264;DHT22;39153;52.680;6.172;2024-02-04T15:30:45;9.50;99.90
53264;DHT22;39153;52.680;6.172;2024-02-04T15:33:11;9.90;99.90
53264;DHT22;39153;52.680;6.172;2024-02-04T15:35:37;9.50;99.90
53264;DHT22;39153;52.680;6.172;2024-02-04T15:38:03;9.80;99.90
53264;DHT22;39153;52.680;6.172;2024-02-04T15:40:29;9.80;99.90
53264;DHT22;39153;52.680;6.172;2024-02-04T15:42:55;9.90;99.90
53264;DHT22;39153;52.680;6.172;2024-02-04T15:45:20;9.70;99.90
53264;DHT22;39153;52.680;6.172;2024-02-04T15:47:50;9.70;99.90
53264;DHT22;39153;52.680;6.172;2024-02-04T15:50:22;9.60;99.90